Time;durP1;ratioP1;P1;durP2;ratioP2;P2;SDS_P1;SDS_P2;PMS_P1;PMS_P2;Temp;Humidity;BMP_temperature;BMP_pressure;BME280_temperature;BME280_humidity;BME280_pressure;Samples;Min_cycle;Max_cycle;Signal;HPM_P1;HPM_P2
2023/05/17 00:01:51;;;;;;;10.57;4.40;;;8.00;99.90;;;;;;5094383;28;20180;-77
2023/05/17 00:04:17;;;;;;;6.67;4.37;;;8.10;99.90;;;;;;5095307;28;20173;-77
2023/05/17 00:06:43;;;;;;;8.03;4.47;;;8.00;99.90;;;;;;5115156;28;20188;-79
2023/05/17 00:09:09;;;;;;;6.13;4.13;;;8.00;99.90;;;;;;5117678;28;20273;-79
2023/05/17 00:11:35;;;;;;;9.23;4.80;;;7.90;99.90;;;;;;5118295;28;20180;-79
2023/05/17 00:14:01;;;;;;;5.83;3.83;;;7.80;99.90;;;;;;5117029;28;20225;-78
2023/05/17 00:16:27;;;;;;;6.07;3.80;;;7.80;99.90;;;;;;5116829;28;20196;-79
2023/05/17 00:18:52;;;;;;;5.03;4.20;;;7.70;99.90;;;;;;5115845;28;20192;-77
2023/05/17 00:21:18;;;;;;;10.30;4.20;;;7.60;99.90;;;;;;5117714;28;20172;-77
2023/05/17 00:23:44;;;;;;;7.60;4.37;;;7.60;99.90;;;;;;5117581;28;20177;-77
2023/05/17 00:26:10;;;;;;;12.10;4.70;;;7.50;99.90;;;;;;5117346;28;20204;-77
2023/05/17 00:28:36;;;;;;;5.20;4.13;;;7.50;99.90;;;;;;5115515;28;20177;-78
2023/05/17 00:31:01;;;;;;;9.60;4.03;;;7.50;99.90;;;;;;5115233;28;20700;-78
2023/05/17 00:33:27;;;;;;;6.63;4.67;;;7.50;99.90;;;;;;5115012;28;20173;-78
2023/05/17 00:35:53;;;;;;;5.03;3.87;;;7.50;99.90;;;;;;5114983;28;20301;-78
2023/05/17 00:38:18;;;;;;;6.10;4.10;;;7.60;99.90;;;;;;5116274;28;20526;-78
2023/05/17 00:40:44;;;;;;;12.73;4.90;;;7.60;99.90;;;;;;5115769;28;20663;-78
2023/05/17 00:43:10;;;;;;;7.10;4.20;;;7.60;99.90;;;;;;5115236;28;20191;-78
2023/05/17 00:45:36;;;;;;;10.60;4.33;;;7.70;99.90;;;;;;5115189;28;20216;-79
2023/05/17 00:48:02;;;;;;;10.07;4.80;;;7.70;99.90;;;;;;5116493;28;20176;-78
2023/05/17 00:50:28;;;;;;;7.17;4.63;;;7.60;99.90;;;;;;5115202;28;20577;-78
2023/05/17 00:52:55;;;;;;;10.43;4.90;;;7.70;99.90;;;;;;5117058;28;20226;-78
2023/05/17 00:55:20;;;;;;;8.30;4.83;;;7.60;99.90;;;;;;5114955;28;20203;-78
2023/05/17 00:57:47;;;;;;;11.00;4.87;;;7.50;99.90;;;;;;5115226;28;20188;-78
2023/05/17 01:00:13;;;;;;;12.67;4.90;;;7.40;99.90;;;;;;5116442;28;20202;-78
2023/05/17 01:02:39;;;;;;;11.93;5.07;;;7.30;99.90;;;;;;5114467;28;20184;-77
2023/05/17 01:05:05;;;;;;;7.27;4.37;;;7.20;99.90;;;;;;5111939;28;20220;-79
2023/05/17 01:07:31;;;;;;;9.13;5.37;;;7.10;99.90;;;;;;5094058;28;20637;-78
2023/05/17 01:09:57;;;;;;;11.97;5.03;;;7.10;99.90;;;;;;5094070;28;20206;-78
2023/05/17 01:12:42;;;;;;;11.07;5.90;;;7.00;99.90;;;;;;5095345;28;20169;-78
2023/05/17 01:15:22;;;;;;;12.73;5.63;;;7.00;99.90;;;;;;5093931;28;20287;-78
2023/05/17 01:18:18;;;;;;;8.47;5.17;;;7.00;99.90;;;;;;5095259;28;20169;-78
2023/05/17 01:20:46;;;;;;;8.60;5.37;;;6.90;99.90;;;;;;5093932;28;20268;-78
2023/05/17 01:23:30;;;;;;;8.43;5.10;;;6.80;99.90;;;;;;5095235;28;20185;-77
2023/05/17 01:26:11;;;;;;;8.80;5.27;;;6.80;99.90;;;;;;5096206;28;20628;-78
2023/05/17 01:28:37;;;;;;;7.60;5.33;;;6.80;99.90;;;;;;5094210;28;20219;-77
2023/05/17 01:31:05;;;;;;;12.20;5.73;;;6.70;99.90;;;;;;5092779;28;20181;-76
2023/05/17 01:33:31;;;;;;;9.40;5.43;;;6.70;99.90;;;;;;5092421;28;20177;-77
2023/05/17 01:35:57;;;;;;;15.90;5.43;;;6.70;99.90;;;;;;5103740;28;20212;-77
2023/05/17 01:38:23;;;;;;;8.93;5.17;;;6.70;99.90;;;;;;5112718;28;20628;-76
2023/05/17 01:41:15;;;;;;;11.23;5.47;;;6.70;99.90;;;;;;5112924;28;20199;-77
2023/05/17 01:44:00;;;;;;;6.97;5.37;;;6.70;99.90;;;;;;5114039;28;20681;-77
2023/05/17 01:46:56;;;;;;;9.77;5.90;;;6.80;99.90;;;;;;5113893;28;20199;-77
2023/05/17 01:49:31;;;;;;;10.63;5.60;;;6.80;99.90;;;;;;5112733;28;20194;-77
2023/05/17 01:52:36;;;;;;;12.60;5.57;;;6.80;99.90;;;;;;5113998;28;20524;-77
2023/05/17 01:55:02;;;;;;;9.40;6.33;;;6.80;99.90;;;;;;5112460;28;20223;-77
2023/05/17 01:57:31;;;;;;;8.47;5.37;;;6.70;99.90;;;;;;5113839;28;20544;-77
2023/05/17 02:00:00;;;;;;;9.93;6.20;;;6.80;99.90;;;;;;5114080;28;20660;-77
2023/05/17 02:02:26;;;;;;;8.73;5.50;;;6.80;99.90;;;;;;5114008;28;20172;-77
2023/05/17 02:04:51;;;;;;;7.37;4.97;;;6.80;99.90;;;;;;5109995;28;20212;-77
2023/05/17 02:07:17;;;;;;;9.47;5.50;;;6.80;99.90;;;;;;5095374;28;20230;-77
2023/05/17 02:09:43;;;;;;;9.43;5.87;;;6.70;99.90;;;;;;5097541;28;20314;-77
2023/05/17 02:12:08;;;;;;;8.60;5.77;;;6.70;99.90;;;;;;5096223;28;20605;-77
2023/05/17 02:14:34;;;;;;;9.73;6.00;;;6.70;99.90;;;;;;5096097;28;20238;-77
2023/05/17 02:17:00;;;;;;;8.43;5.80;;;6.80;99.90;;;;;;5097415;28;20259;-77
2023/05/17 02:19:26;;;;;;;8.77;6.27;;;6.80;99.90;;;;;;5095997;28;20633;-77
2023/05/17 02:21:52;;;;;;;9.30;5.67;;;6.80;99.90;;;;;;5096022;28;20319;-77
2023/05/17 02:24:17;;;;;;;8.27;5.67;;;6.70;99.90;;;;;;5097460;28;20184;-77
2023/05/17 02:26:44;;;;;;;7.40;5.37;;;6.80;99.90;;;;;;5095914;28;20184;-77
2023/05/17 02:29:10;;;;;;;12.23;6.07;;;6.80;99.90;;;;;;5096001;28;20204;-77
2023/05/17 02:31:36;;;;;;;11.80;6.03;;;6.70;99.90;;;;;;5097667;28;20204;-76
2023/05/17 02:34:02;;;;;;;8.33;5.70;;;6.70;99.90;;;;;;5095791;28;20222;-77
2023/05/17 02:36:27;;;;;;;11.23;6.23;;;6.70;99.90;;;;;;5111460;28;20291;-77
2023/05/17 02:38:53;;;;;;;8.77;6.10;;;6.70;99.90;;;;;;5116329;28;20172;-77
2023/05/17 02:41:19;;;;;;;11.27;6.93;;;6.60;99.90;;;;;;5115943;28;20196;-77
2023/05/17 02:43:45;;;;;;;13.97;6.80;;;6.70;99.90;;;;;;5116047;28;20184;-77
2023/05/17 02:46:11;;;;;;;10.60;6.23;;;6.60;99.90;;;;;;5116418;28;20308;-77
2023/05/17 02:48:36;;;;;;;11.20;6.80;;;6.60;99.90;;;;;;5115911;28;20181;-77
2023/05/17 02:51:02;;;;;;;11.27;5.83;;;6.50;99.90;;;;;;5117272;28;20176;-77
2023/05/17 02:53:28;;;;;;;11.60;7.00;;;6.50;99.90;;;;;;5116085;28;20183;-77
2023/05/17 02:55:56;;;;;;;11.37;6.43;;;6.50;99.90;;;;;;5117368;28;20219;-77
2023/05/17 02:58:23;;;;;;;11.47;6.63;;;6.50;99.90;;;;;;5115771;28;20191;-77
2023/05/17 03:00:49;;;;;;;13.90;7.37;;;6.50;99.90;;;;;;5115712;28;20663;-77
2023/05/17 03:03:15;;;;;;;15.13;6.73;;;6.50;99.90;;;;;;5115463;28;20180;-77
2023/05/17 03:05:41;;;;;;;13.03;6.47;;;6.60;99.90;;;;;;5116863;28;20222;-77
2023/05/17 03:08:07;;;;;;;11.13;7.07;;;6.70;99.90;;;;;;5115666;28;20546;-77
2023/05/17 03:10:32;;;;;;;13.43;7.43;;;6.80;99.90;;;;;;5117267;28;20222;-77
2023/05/17 03:12:58;;;;;;;17.50;8.03;;;6.80;99.90;;;;;;5115523;28;20176;-77
2023/05/17 03:15:28;;;;;;;11.73;7.17;;;6.80;99.90;;;;;;5116569;28;20196;-77
2023/05/17 03:17:54;;;;;;;11.07;7.77;;;6.90;99.90;;;;;;5107028;28;20234;-77
2023/05/17 03:20:20;;;;;;;14.40;7.73;;;6.90;99.90;;;;;;5098291;28;20594;-77
2023/05/17 03:22:46;;;;;;;16.70;7.70;;;6.90;99.90;;;;;;5115361;28;20226;-77
2023/05/17 03:25:12;;;;;;;16.17;7.70;;;7.00;99.90;;;;;;5116444;28;20212;-77
2023/05/17 03:27:37;;;;;;;12.07;7.23;;;7.00;99.90;;;;;;5116666;28;20157;-77
2023/05/17 03:30:03;;;;;;;13.70;7.97;;;7.00;99.90;;;;;;5115315;28;20636;-78
2023/05/17 03:32:29;;;;;;;16.97;7.70;;;6.90;99.90;;;;;;5115067;28;20593;-77
2023/05/17 03:34:55;;;;;;;12.43;7.70;;;6.90;99.90;;;;;;5114992;28;20200;-77
2023/05/17 03:37:21;;;;;;;18.40;7.73;;;6.90;99.90;;;;;;5115285;28;20640;-77
2023/05/17 03:39:47;;;;;;;15.53;8.97;;;6.90;99.90;;;;;;5115974;28;20203;-77
2023/05/17 03:42:12;;;;;;;20.47;9.77;;;6.90;99.90;;;;;;5116618;28;20189;-77
2023/05/17 03:44:39;;;;;;;16.83;9.50;;;6.80;99.90;;;;;;5098668;28;20703;-77
2023/05/17 03:47:05;;;;;;;14.50;8.80;;;6.90;99.90;;;;;;5098610;28;20184;-77
2023/05/17 03:49:33;;;;;;;15.27;8.00;;;6.90;99.90;;;;;;5116680;28;20539;-75
2023/05/17 03:51:58;;;;;;;17.57;8.90;;;6.90;99.90;;;;;;5114731;28;20633;-75
2023/05/17 03:54:24;;;;;;;14.23;9.10;;;6.90;99.90;;;;;;5098314;28;20282;-75
2023/05/17 03:56:50;;;;;;;12.47;8.60;;;6.90;99.90;;;;;;5114772;28;20270;-75
2023/05/17 03:59:16;;;;;;;16.63;8.63;;;7.00;99.90;;;;;;5116752;28;20206;-75
2023/05/17 04:01:42;;;;;;;14.70;8.93;;;7.00;99.90;;;;;;5115830;28;20180;-74
2023/05/17 04:04:08;;;;;;;21.77;9.17;;;7.10;99.90;;;;;;5115803;28;20633;-75
2023/05/17 04:06:34;;;;;;;14.03;8.17;;;7.10;99.90;;;;;;5097381;28;20722;-75
2023/05/17 04:09:00;;;;;;;15.57;7.97;;;7.20;99.90;;;;;;5115816;28;20169;-75
2023/05/17 04:11:26;;;;;;;18.27;7.70;;;7.20;99.90;;;;;;5097519;28;20206;-76
2023/05/17 04:13:53;;;;;;;14.57;8.47;;;7.30;99.90;;;;;;5114486;28;20214;-76
2023/05/17 04:16:19;;;;;;;14.97;8.63;;;7.30;99.90;;;;;;5115670;28;20207;-76
2023/05/17 04:18:45;;;;;;;12.27;8.33;;;7.30;99.90;;;;;;5115582;28;20173;-76
2023/05/17 04:21:11;;;;;;;15.73;9.23;;;7.40;99.90;;;;;;5115506;28;20180;-76
2023/05/17 04:23:37;;;;;;;17.90;8.33;;;7.40;99.90;;;;;;5114032;28;20187;-76
2023/05/17 04:26:04;;;;;;;16.73;8.50;;;7.30;99.90;;;;;;5116134;28;20208;-76
2023/05/17 04:28:30;;;;;;;16.40;8.23;;;7.30;99.90;;;;;;5097021;28;20570;-75
2023/05/17 04:30:56;;;;;;;19.90;9.87;;;7.40;99.90;;;;;;5116370;28;20603;-76
2023/05/17 04:33:22;;;;;;;15.77;8.83;;;7.40;99.90;;;;;;5114784;28;20177;-77
2023/05/17 04:35:50;;;;;;;23.17;10.07;;;7.50;99.90;;;;;;5106023;28;20684;-76
2023/05/17 04:38:16;;;;;;;20.57;10.50;;;7.60;99.90;;;;;;5095379;28;20203;-75
2023/05/17 04:40:41;;;;;;;18.47;9.37;;;7.70;99.90;;;;;;5094799;28;20212;-76
2023/05/17 04:43:08;;;;;;;23.77;9.57;;;7.80;99.90;;;;;;5076720;28;20177;-76
2023/05/17 04:45:34;;;;;;;21.43;10.00;;;7.90;99.90;;;;;;5093421;28;20212;-76
2023/05/17 04:48:00;;;;;;;20.73;9.07;;;8.00;99.90;;;;;;5094624;28;20169;-76
2023/05/17 04:50:26;;;;;;;19.70;9.43;;;8.10;99.90;;;;;;5094327;28;20207;-76
2023/05/17 04:52:51;;;;;;;19.27;9.90;;;8.20;99.90;;;;;;5094404;28;20388;-76
2023/05/17 04:55:17;;;;;;;22.53;9.00;;;8.20;99.90;;;;;;5094258;28;20714;-76
2023/05/17 04:57:43;;;;;;;13.87;8.57;;;8.30;99.90;;;;;;5094392;28;20188;-76
2023/05/17 05:00:09;;;;;;;21.87;9.80;;;8.40;99.90;;;;;;5093108;28;20265;-76
2023/05/17 05:02:35;;;;;;;20.60;8.70;;;8.40;99.90;;;;;;5092886;28;20177;-76
2023/05/17 05:05:03;;;;;;;18.03;8.63;;;8.40;99.90;;;;;;5097448;28;20221;-76
2023/05/17 05:07:30;;;;;;;19.77;9.07;;;8.50;99.90;;;;;;5113240;28;20244;-76
2023/05/17 05:09:56;;;;;;;16.73;8.97;;;8.60;99.90;;;;;;5114860;28;20153;-76
2023/05/17 05:12:21;;;;;;;16.30;8.80;;;8.70;99.90;;;;;;5113300;28;20203;-76
2023/05/17 05:14:47;;;;;;;17.70;8.80;;;8.70;99.90;;;;;;5114795;28;20196;-76
2023/05/17 05:17:13;;;;;;;20.67;8.73;;;8.70;99.90;;;;;;5113120;28;20632;-77
2023/05/17 05:19:38;;;;;;;16.17;8.40;;;8.80;99.90;;;;;;5113089;28;20271;-75
2023/05/17 05:22:04;;;;;;;26.27;8.83;;;8.80;99.90;;;;;;5114544;28;20569;-75
2023/05/17 05:24:30;;;;;;;20.83;9.73;;;8.80;99.90;;;;;;5114625;28;20198;-75
2023/05/17 05:26:56;;;;;;;19.20;8.53;;;8.80;99.90;;;;;;5112855;28;20206;-75
2023/05/17 05:29:21;;;;;;;24.10;8.33;;;8.90;99.90;;;;;;5114115;28;20175;-75
2023/05/17 05:31:47;;;;;;;19.43;8.40;;;8.90;99.90;;;;;;5112668;28;20176;-75
2023/05/17 05:34:14;;;;;;;17.23;7.53;;;9.00;99.90;;;;;;5114429;28;20475;-76
2023/05/17 05:36:40;;;;;;;17.43;7.93;;;9.00;99.90;;;;;;5096354;28;20560;-75
2023/05/17 05:39:07;;;;;;;23.73;7.70;;;9.10;99.90;;;;;;5094458;28;20622;-75
2023/05/17 05:41:33;;;;;;;19.70;7.43;;;9.10;99.90;;;;;;5092081;28;20228;-76
2023/05/17 05:43:58;;;;;;;12.87;7.67;;;9.20;99.90;;;;;;5094464;28;20173;-75
2023/05/17 05:46:25;;;;;;;18.17;7.07;;;9.20;99.90;;;;;;5093826;28;20208;-75
2023/05/17 05:48:51;;;;;;;16.97;7.73;;;9.20;99.90;;;;;;5093843;28;20174;-76
2023/05/17 05:51:18;;;;;;;20.93;7.33;;;9.30;99.90;;;;;;5094993;28;20177;-76
2023/05/17 05:53:43;;;;;;;17.20;6.53;;;9.30;99.90;;;;;;5092898;28;20192;-76
2023/05/17 05:56:09;;;;;;;18.10;6.47;;;9.40;99.90;;;;;;5093943;28;20201;-75
2023/05/17 05:58:36;;;;;;;17.20;7.23;;;9.40;99.90;;;;;;5093703;28;20184;-75
2023/05/17 06:01:02;;;;;;;17.38;7.13;;;9.40;99.90;;;;;;5093704;28;20173;-74
2023/05/17 06:03:27;;;;;;;13.23;6.73;;;9.40;99.90;;;;;;5093828;28;20177;-75
2023/05/17 06:05:54;;;;;;;16.27;7.30;;;9.40;99.90;;;;;;5104144;28;20607;-74
2023/05/17 06:08:20;;;;;;;16.08;7.97;;;9.40;99.90;;;;;;5112697;28;20644;-75
2023/05/17 06:10:45;;;;;;;19.83;7.55;;;9.50;99.90;;;;;;5113967;28;20179;-75
2023/05/17 06:13:11;;;;;;;14.82;7.53;;;9.50;99.90;;;;;;5113898;28;20180;-75
2023/05/17 06:15:37;;;;;;;17.30;7.45;;;9.40;99.90;;;;;;5113874;28;20196;-75
2023/05/17 06:18:03;;;;;;;18.02;6.68;;;9.50;99.90;;;;;;5113834;28;20682;-75
2023/05/17 06:20:28;;;;;;;14.40;6.73;;;9.60;99.90;;;;;;5112512;28;20185;-75
2023/05/17 06:22:54;;;;;;;19.25;7.07;;;9.60;99.90;;;;;;5112502;28;20180;-75
2023/05/17 06:25:20;;;;;;;18.03;7.40;;;9.70;99.90;;;;;;5113449;28;20204;-74
2023/05/17 06:27:46;;;;;;;19.05;7.47;;;9.80;99.90;;;;;;5114254;28;20180;-75
2023/05/17 06:30:12;;;;;;;19.00;6.43;;;9.90;99.90;;;;;;5114008;28;20275;-75
2023/05/17 06:32:38;;;;;;;17.95;6.55;;;10.00;99.90;;;;;;5113658;28;20231;-75
2023/05/17 06:35:05;;;;;;;22.00;7.20;;;10.10;99.90;;;;;;5112416;28;20212;-75
2023/05/17 06:37:31;;;;;;;15.30;7.50;;;10.10;99.90;;;;;;5112738;28;20589;-75
2023/05/17 06:40:05;;;;;;;17.55;6.55;;;10.10;99.90;;;;;;5114350;28;20180;-75
2023/05/17 06:42:31;;;;;;;22.35;7.57;;;10.10;99.90;;;;;;5095844;28;20235;-75
2023/05/17 06:44:57;;;;;;;16.05;6.45;;;10.20;99.90;;;;;;5113541;28;20216;-75
2023/05/17 06:47:23;;;;;;;18.13;7.32;;;10.30;99.90;;;;;;5114558;28;20699;-75
2023/05/17 06:49:49;;;;;;;22.13;6.80;;;10.30;99.90;;;;;;5114756;28;20173;-75
2023/05/17 06:52:15;;;;;;;20.77;6.35;;;10.40;99.90;;;;;;5116270;28;20172;-75
2023/05/17 06:54:41;;;;;;;17.98;6.15;;;10.40;99.90;;;;;;5118073;28;20275;-75
2023/05/17 06:57:08;;;;;;;16.92;5.70;;;10.30;99.90;;;;;;5118148;28;20212;-75
2023/05/17 06:59:35;;;;;;;26.25;14.80;;;10.30;99.90;;;;;;5117600;28;20641;-75
2023/05/17 07:02:01;;;;;;;25.50;9.80;;;10.20;99.90;;;;;;5117139;28;20179;-75
2023/05/17 07:04:27;;;;;;;13.65;5.40;;;10.20;99.90;;;;;;5115556;28;20192;-75
2023/05/17 07:06:52;;;;;;;20.27;6.18;;;10.20;99.90;;;;;;5115592;28;20180;-75
2023/05/17 07:09:20;;;;;;;16.83;6.25;;;10.20;99.90;;;;;;5116961;28;20211;-75
2023/05/17 07:11:46;;;;;;;16.23;6.95;;;10.30;99.90;;;;;;5115701;28;20177;-75
2023/05/17 07:14:12;;;;;;;13.30;6.85;;;10.40;99.90;;;;;;5116736;28;20177;-75
2023/05/17 07:16:38;;;;;;;20.13;6.78;;;10.40;99.90;;;;;;5116937;28;20191;-74
2023/05/17 07:19:04;;;;;;;13.05;6.22;;;10.40;99.90;;;;;;5115551;28;20218;-75
2023/05/17 07:21:31;;;;;;;10.38;4.53;;;10.40;99.90;;;;;;5115641;28;20245;-75
2023/05/17 07:23:57;;;;;;;20.10;6.38;;;10.30;99.90;;;;;;5116742;28;20181;-75
2023/05/17 07:26:23;;;;;;;14.45;5.28;;;10.30;99.90;;;;;;5115146;28;20212;-75
2023/05/17 07:28:50;;;;;;;11.77;5.13;;;10.20;99.90;;;;;;5116617;28;20543;-75
2023/05/17 07:31:16;;;;;;;14.63;4.70;;;10.20;99.90;;;;;;5115255;28;20219;-75
2023/05/17 07:33:42;;;;;;;11.57;4.05;;;10.30;99.90;;;;;;5117111;28;20694;-74
2023/05/17 07:36:08;;;;;;;10.93;4.03;;;10.60;99.90;;;;;;5115384;28;20302;-74
2023/05/17 07:38:36;;;;;;;13.40;4.38;;;11.00;66.60;;;;;;5116895;28;20276;-75
2023/05/17 07:41:03;;;;;;;11.02;4.07;;;11.20;1.00;;;;;;5116333;28;20195;-75
2023/05/17 07:43:29;;;;;;;10.63;4.30;;;11.20;1.00;;;;;;5115066;28;20161;-74
2023/05/17 07:45:55;;;;;;;13.23;4.45;;;11.30;1.00;;;;;;5114774;28;20216;-75
2023/05/17 07:48:21;;;;;;;12.13;4.30;;;11.40;99.90;;;;;;5116376;28;20214;-74
2023/05/17 07:50:48;;;;;;;11.93;4.30;;;11.30;1.00;;;;;;5115694;28;20259;-74
2023/05/17 07:53:14;;;;;;;12.45;4.10;;;11.20;99.90;;;;;;5116080;28;20168;-74
2023/05/17 07:55:40;;;;;;;13.90;4.55;;;11.10;1.00;;;;;;5116057;28;20188;-75
2023/05/17 07:58:05;;;;;;;10.60;4.63;;;11.10;1.00;;;;;;5115920;28;20172;-75
2023/05/17 08:00:32;;;;;;;12.05;4.45;;;11.20;1.00;;;;;;5115026;28;20172;-74
2023/05/17 08:02:57;;;;;;;10.00;4.30;;;11.10;6.50;;;;;;5114206;28;20546;-74
2023/05/17 08:05:23;;;;;;;8.90;4.17;;;11.00;99.90;;;;;;5108467;28;20204;-74
2023/05/17 08:07:49;;;;;;;8.25;4.32;;;11.00;1.00;;;;;;5095817;28;20165;-74
2023/05/17 08:10:15;;;;;;;6.78;4.07;;;11.20;1.00;;;;;;5094172;28;20691;-75
2023/05/17 08:12:41;;;;;;;14.30;3.97;;;11.30;1.00;;;;;;5095337;28;20169;-74
2023/05/17 08:15:07;;;;;;;11.95;4.43;;;11.40;99.90;;;;;;5095529;28;20200;-75
2023/05/17 08:17:32;;;;;;;11.88;4.85;;;11.50;1.00;;;;;;5095298;28;20181;-75
2023/05/17 08:19:58;;;;;;;11.48;4.50;;;11.70;1.00;;;;;;5076954;28;20653;-74
2023/05/17 08:22:25;;;;;;;13.13;4.55;;;11.80;1.00;;;;;;5095854;28;20252;-74
2023/05/17 08:24:50;;;;;;;18.08;4.78;;;11.80;99.90;;;;;;5095046;28;20251;-75
2023/05/17 08:27:16;;;;;;;8.98;4.05;;;11.70;1.00;;;;;;5095037;28;20593;-74
2023/05/17 08:29:42;;;;;;;13.07;4.85;;;11.50;1.00;;;;;;5076568;28;20675;-75
2023/05/17 08:32:08;;;;;;;14.57;5.40;;;11.30;99.90;;;;;;5095225;28;20531;-74
2023/05/17 08:34:34;;;;;;;14.02;4.15;;;11.30;1.00;;;;;;5095006;28;20231;-75
2023/05/17 08:37:00;;;;;;;7.32;4.00;;;11.90;1.00;;;;;;5115133;28;20229;-74
2023/05/17 08:39:25;;;;;;;12.07;3.95;;;13.10;1.00;;;;;;5115833;28;20169;-75
2023/05/17 08:41:52;;;;;;;9.18;3.85;;;14.40;99.90;;;;;;5115221;28;20259;-75
2023/05/17 08:44:19;;;;;;;6.95;3.25;;;15.00;1.00;;;;;;5115520;28;20500;-75
2023/05/17 08:46:52;;;;;;;10.70;3.75;;;15.90;1.00;;;;;;5115505;28;20250;-75
2023/05/17 08:49:21;;;;;;;6.45;3.30;;;15.90;15.70;;;;;;5096843;28;20641;-75
2023/05/17 08:51:49;;;;;;;7.88;3.60;;;15.60;1.00;;;;;;5115500;28;20172;-75
2023/05/17 08:54:15;;;;;;;5.90;3.40;;;16.10;99.90;;;;;;5096902;28;20640;-75
2023/05/17 08:56:42;;;;;;;12.75;3.83;;;16.70;1.00;;;;;;5114855;28;20227;-76
2023/05/17 08:59:11;;;;;;;7.57;3.40;;;17.10;1.00;;;;;;5115521;28;20180;-75
2023/05/17 09:01:42;;;;;;;9.20;3.17;;;16.90;1.00;;;;;;5115310;28;20184;-76
2023/05/17 09:04:11;;;;;;;7.43;3.30;;;16.00;99.90;;;;;;5116308;28;20295;-77
2023/05/17 09:06:37;;;;;;;9.65;3.70;;;15.10;99.90;;;;;;5080380;28;20696;-76
2023/05/17 09:09:06;;;;;;;14.23;3.75;;;14.00;99.90;;;;;;5095831;28;20203;-75
2023/05/17 09:11:32;;;;;;;10.63;3.70;;;13.40;99.90;;;;;;5077777;28;20179;-75
2023/05/17 09:14:07;;;;;;;7.07;3.20;;;13.40;1.00;;;;;;5095030;28;20193;-76
2023/05/17 09:16:35;;;;;;;12.75;3.80;;;13.30;1.00;;;;;;5094312;28;20192;-75
2023/05/17 09:19:02;;;;;;;7.22;3.58;;;13.20;1.00;;;;;;5076216;28;20272;-75
2023/05/17 09:21:30;;;;;;;9.15;3.40;;;13.10;99.90;;;;;;5075893;28;20177;-75
2023/05/17 09:23:58;;;;;;;13.02;4.22;;;13.30;1.00;;;;;;5075558;28;20173;-76
2023/05/17 09:26:24;;;;;;;8.93;3.55;;;13.30;99.90;;;;;;5076404;28;20215;-76
2023/05/17 09:28:52;;;;;;;7.22;3.60;;;12.90;99.90;;;;;;5076333;28;20173;-76
2023/05/17 09:31:18;;;;;;;10.35;4.20;;;12.70;99.90;;;;;;5094679;28;20224;-76
2023/05/17 09:33:48;;;;;;;13.57;3.58;;;13.20;1.00;;;;;;5094742;28;20177;-76
2023/05/17 09:36:22;;;;;;;9.15;3.63;;;14.10;1.00;;;;;;5089739;28;20700;-76
2023/05/17 09:38:55;;;;;;;9.23;3.58;;;15.00;99.90;;;;;;5114932;28;20183;-76
2023/05/17 09:41:25;;;;;;;10.70;3.78;;;15.70;1.00;;;;;;5115094;28;20690;-76
2023/05/17 09:43:51;;;;;;;10.05;3.83;;;16.80;99.90;;;;;;5114686;28;20212;-76
2023/05/17 09:46:19;;;;;;;7.20;3.30;;;17.30;99.90;;;;;;5115059;28;20204;-76
2023/05/17 09:48:51;;;;;;;9.50;3.50;;;17.40;1.00;;;;;;5114600;28;20250;-76
2023/05/17 09:51:17;;;;;;;10.45;3.50;;;17.40;1.00;;;;;;5096476;28;20169;-76
2023/05/17 09:53:43;;;;;;;14.02;3.90;;;17.40;99.90;;;;;;5114771;28;20234;-76
2023/05/17 09:56:09;;;;;;;11.85;3.90;;;17.00;99.90;;;;;;5114665;28;20196;-76
2023/05/17 09:58:38;;;;;;;6.97;2.88;;;16.90;99.90;;;;;;5114577;28;20252;-76
2023/05/17 10:01:08;;;;;;;10.18;3.40;;;16.70;93.50;;;;;;5114672;28;20172;-76
2023/05/17 10:03:37;;;;;;;12.05;3.47;;;16.60;18.70;;;;;;5115127;28;20616;-76
2023/05/17 10:06:08;;;;;;;10.15;3.42;;;16.70;1.00;;;;;;5102343;28;20270;-76
2023/05/17 10:08:37;;;;;;;12.82;3.70;;;17.00;40.40;;;;;;5094721;28;20565;-76
2023/05/17 10:11:10;;;;;;;11.20;4.07;;;16.50;1.00;;;;;;5093946;28;20180;-75
2023/05/17 10:14:17;;;;;;;7.88;3.65;;;15.70;1.00;;;;;;5076177;28;20174;-76
2023/05/17 10:16:43;;;;;;;7.05;3.50;;;16.20;17.70;;;;;;5094036;28;20293;-76
2023/05/17 10:19:11;;;;;;;8.73;3.58;;;16.60;1.00;;;;;;5094118;28;20173;-75
2023/05/17 10:21:38;;;;;;;12.63;4.25;;;16.80;1.00;;;;;;5076046;28;20185;-76
2023/05/17 10:24:05;;;;;;;7.63;3.40;;;17.20;1.00;;;;;;5094243;28;20612;-76
2023/05/17 10:26:32;;;;;;;9.70;3.47;;;16.90;1.00;;;;;;5075510;28;20265;-76
2023/05/17 10:29:00;;;;;;;9.27;3.45;;;17.10;1.00;;;;;;5080005;28;20693;-76
2023/05/17 10:31:31;;;;;;;4.35;3.08;;;17.10;1.00;;;;;;5080142;28;20520;-76
2023/05/17 10:34:01;;;;;;;5.72;3.22;;;16.70;1.00;;;;;;5097712;28;20195;-76
2023/05/17 10:36:27;;;;;;;10.23;3.40;;;16.30;1.00;;;;;;5112545;28;20223;-76
2023/05/17 10:38:54;;;;;;;10.55;3.80;;;16.10;1.00;;;;;;5099605;28;20229;-76
2023/05/17 10:41:23;;;;;;;11.77;3.70;;;16.00;1.00;;;;;;5117803;28;20275;-76
2023/05/17 10:43:50;;;;;;;7.03;3.45;;;15.60;1.00;;;;;;5099546;28;20176;-76
2023/05/17 10:46:21;;;;;;;12.75;3.78;;;16.00;99.90;;;;;;5117769;28;20196;-76
2023/05/17 10:48:50;;;;;;;9.32;3.70;;;16.00;1.00;;;;;;5117797;28;20153;-76
2023/05/17 10:51:24;;;;;;;4.60;3.58;;;15.70;1.00;;;;;;5118788;28;20164;-76
2023/05/17 10:54:07;;;;;;;10.55;3.90;;;15.90;1.00;;;;;;5118900;28;20160;-76
2023/05/17 10:56:33;;;;;;;8.75;3.55;;;15.90;1.00;;;;;;5118934;28;20675;-76
2023/05/17 10:59:18;;;;;;;9.00;3.38;;;16.30;1.00;;;;;;5118467;28;20230;-76
2023/05/17 11:02:05;;;;;;;8.15;3.83;;;16.00;1.00;;;;;;5117544;28;20192;-75
2023/05/17 11:04:41;;;;;;;11.02;4.00;;;15.90;1.00;;;;;;5117399;28;20169;-76
2023/05/17 11:07:15;;;;;;;10.40;3.47;;;15.80;1.00;;;;;;5118243;28;20157;-76
2023/05/17 11:09:42;;;;;;;9.82;3.88;;;15.50;1.00;;;;;;5118321;28;20171;-75
2023/05/17 11:12:13;;;;;;;7.35;3.85;;;15.50;1.00;;;;;;5100009;28;20169;-75
2023/05/17 11:14:44;;;;;;;6.82;3.88;;;15.60;1.00;;;;;;5118156;28;20198;-74
2023/05/17 11:17:17;;;;;;;9.95;3.70;;;15.80;1.00;;;;;;5117200;28;20168;-75
2023/05/17 11:20:14;;;;;;;7.90;3.38;;;15.50;1.00;;;;;;5117185;28;20230;-75
2023/05/17 11:22:43;;;;;;;9.82;3.70;;;15.40;99.90;;;;;;5095661;28;20267;-75
2023/05/17 11:25:13;;;;;;;15.90;3.65;;;15.00;99.90;;;;;;5116941;28;20235;-75
2023/05/17 11:27:44;;;;;;;9.52;3.80;;;14.70;76.00;;;;;;5098613;28;20198;-75
2023/05/17 11:30:30;;;;;;;7.95;3.15;;;14.80;1.00;;;;;;5116919;28;20153;-75
2023/05/17 11:33:00;;;;;;;6.97;3.40;;;15.20;99.90;;;;;;5098570;28;20624;-75
2023/05/17 11:35:30;;;;;;;13.73;3.80;;;15.50;99.90;;;;;;5098187;28;20204;-75
2023/05/17 11:38:23;;;;;;;10.02;3.53;;;15.90;39.90;;;;;;5116578;28;20244;-75
2023/05/17 11:40:55;;;;;;;12.35;4.07;;;16.40;1.00;;;;;;5116306;28;20187;-75
2023/05/17 11:43:22;;;;;;;11.00;4.00;;;16.10;1.00;;;;;;5116936;28;20697;-75
2023/05/17 11:45:49;;;;;;;7.07;3.47;;;16.00;1.00;;;;;;5116360;28;20212;-75
2023/05/17 11:48:18;;;;;;;8.73;3.53;;;15.50;1.00;;;;;;5116745;28;20247;-75
2023/05/17 11:50:45;;;;;;;9.45;3.75;;;15.50;1.00;;;;;;5097914;28;20169;-75
2023/05/17 11:53:12;;;;;;;6.82;3.20;;;15.50;1.00;;;;;;5098290;28;20173;-74
2023/05/17 11:55:49;;;;;;;10.57;3.67;;;15.70;1.00;;;;;;5116710;28;20615;-75
2023/05/17 11:58:19;;;;;;;7.22;3.17;;;16.20;99.90;;;;;;5116420;28;20159;-75
2023/05/17 12:00:51;;;;;;;9.07;3.67;;;16.50;1.00;;;;;;5116485;28;20249;-75
2023/05/17 12:03:21;;;;;;;9.32;3.75;;;16.40;1.00;;;;;;5116034;28;20621;-75
2023/05/17 12:05:49;;;;;;;7.78;3.92;;;16.40;1.00;;;;;;5105864;28;20581;-75
2023/05/17 12:08:17;;;;;;;6.30;2.95;;;16.50;1.00;;;;;;5096004;28;20655;-75
2023/05/17 12:10:50;;;;;;;9.48;3.17;;;16.40;1.00;;;;;;5077489;28;20193;-75
2023/05/17 12:13:17;;;;;;;6.85;3.05;;;16.50;1.00;;;;;;5095564;28;20240;-74
2023/05/17 12:15:47;;;;;;;5.65;3.47;;;16.60;1.00;;;;;;5095435;28;20258;-76
2023/05/17 12:18:13;;;;;;;6.28;2.72;;;16.40;1.00;;;;;;5095418;28;20273;-75
2023/05/17 12:20:55;;;;;;;7.22;3.20;;;16.10;1.00;;;;;;5077101;28;20181;-75
2023/05/17 12:23:32;;;;;;;11.32;3.47;;;15.80;1.00;;;;;;5095757;28;20161;-76
2023/05/17 12:26:05;;;;;;;9.13;3.50;;;15.80;1.00;;;;;;5094987;28;20204;-75
2023/05/17 12:28:31;;;;;;;7.30;3.10;;;16.30;1.00;;;;;;5095187;28;20246;-75
2023/05/17 12:31:01;;;;;;;5.05;2.90;;;16.80;1.00;;;;;;5095280;28;20262;-76
2023/05/17 12:33:39;;;;;;;7.93;3.17;;;17.00;1.00;;;;;;5076930;28;20181;-76
2023/05/17 12:36:07;;;;;;;10.07;3.40;;;17.50;1.00;;;;;;5089033;28;20215;-75
2023/05/17 12:38:33;;;;;;;10.30;3.20;;;17.80;1.00;;;;;;5115361;28;20168;-75
2023/05/17 12:41:01;;;;;;;10.48;3.50;;;17.20;1.00;;;;;;5115117;28;20195;-76
2023/05/17 12:43:28;;;;;;;9.43;3.50;;;17.00;1.00;;;;;;5097018;28;20230;-76
2023/05/17 12:46:01;;;;;;;11.77;4.07;;;16.60;1.00;;;;;;5114838;28;20253;-76
2023/05/17 12:48:27;;;;;;;9.43;3.53;;;16.40;1.00;;;;;;5114829;28;20214;-76
2023/05/17 12:50:54;;;;;;;5.72;3.30;;;16.30;1.00;;;;;;5096320;28;20590;-76
2023/05/17 12:53:22;;;;;;;7.25;3.17;;;16.80;1.00;;;;;;5115308;28;20165;-76